CFY6 weather

Turner Valley Bar N Ranch Airport
Turner Valley Bar N Ranch, Alberta, Canada

Public forecast

Using degrees Celsius for public forecast. Weather courtesy of forecast.io.

METAR (pilot weather report)

Closest report is Calgary / Springbank Airport, 27.0 nm (49.9 km) N. Retrieved 2019/06/27 12:22 UTC (0 seconds ago):

CYBW 271222Z AUTO 34007KT 9SM BKN060 OVC080 10/09 A3002 RMK SLP175 DENSITY ALT 4100FT

TAF (pilot weather forecast)

Closest forecast is Calgary / Springbank Airport, 27.0 nm (49.9 km) N. Retrieved 2019/06/27 12:45 UTC (0 seconds ago):

TAF TAF CYBW 271143Z 2712/2724 34008KT P6SM FEW020 SCT040 BKN080 FM271400 02012KT P6SM -SHRA OVC060 TEMPO 2714/2718 4SM -SHRA BR OVC030 PROB30 2714/2718 VRB15G25KT 2SM TSRA BR SCT008 OVC020CB FM271800 08012KT P6SM SCT020 OVC040 TEMPO 2718/2724 4SM -SHRA BR OVC020 PROB40 2718/2724 VRB15G25KT 2SM TSRA OVC020CB RMK FCST BASED ON AUTO OBS. NXT FCST BY 271800Z